sensor_id;sensor_type;location;lat;lon;timestamp;temperature;humidity
9057;DHT22;4563;54.756;9.400;2023-12-28T00:01:53;8.70;85.10
9057;DHT22;4563;54.756;9.400;2023-12-28T00:04:20;8.70;85.10
9057;DHT22;4563;54.756;9.400;2023-12-28T00:06:48;8.70;85.10
9057;DHT22;4563;54.756;9.400;2023-12-28T00:09:15;8.70;85.10
9057;DHT22;4563;54.756;9.400;2023-12-28T00:11:41;8.70;85.10
9057;DHT22;4563;54.756;9.400;2023-12-28T00:14:08;8.80;85.20
9057;DHT22;4563;54.756;9.400;2023-12-28T00:16:35;8.80;85.20
9057;DHT22;4563;54.756;9.400;2023-12-28T00:19:03;8.80;85.20
9057;DHT22;4563;54.756;9.400;2023-12-28T00:21:30;8.90;85.30
9057;DHT22;4563;54.756;9.400;2023-12-28T00:23:58;8.80;85.20
9057;DHT22;4563;54.756;9.400;2023-12-28T00:26:25;8.90;85.30
9057;DHT22;4563;54.756;9.400;2023-12-28T00:28:52;8.90;85.40
9057;DHT22;4563;54.756;9.400;2023-12-28T00:31:18;9.00;85.50
9057;DHT22;4563;54.756;9.400;2023-12-28T00:33:45;9.00;85.50
9057;DHT22;4563;54.756;9.400;2023-12-28T00:36:12;9.00;85.50
9057;DHT22;4563;54.756;9.400;2023-12-28T00:38:39;9.00;85.60
9057;DHT22;4563;54.756;9.400;2023-12-28T00:41:07;9.00;85.50
9057;DHT22;4563;54.756;9.400;2023-12-28T00:43:34;9.10;85.60
9057;DHT22;4563;54.756;9.400;2023-12-28T00:46:01;9.10;85.60
9057;DHT22;4563;54.756;9.400;2023-12-28T00:48:28;9.10;85.60
9057;DHT22;4563;54.756;9.400;2023-12-28T00:50:55;9.20;85.70
9057;DHT22;4563;54.756;9.400;2023-12-28T00:53:24;9.20;85.70
9057;DHT22;4563;54.756;9.400;2023-12-28T00:55:51;9.20;85.70
9057;DHT22;4563;54.756;9.400;2023-12-28T00:58:20;9.20;85.80
9057;DHT22;4563;54.756;9.400;2023-12-28T01:00:47;9.30;85.90
9057;DHT22;4563;54.756;9.400;2023-12-28T01:03:14;9.30;85.90
9057;DHT22;4563;54.756;9.400;2023-12-28T01:05:40;9.30;85.90
9057;DHT22;4563;54.756;9.400;2023-12-28T01:08:07;9.40;85.90
9057;DHT22;4563;54.756;9.400;2023-12-28T01:10:34;9.40;85.90
9057;DHT22;4563;54.756;9.400;2023-12-28T01:13:01;9.40;85.90
9057;DHT22;4563;54.756;9.400;2023-12-28T01:15:29;9.40;85.90
9057;DHT22;4563;54.756;9.400;2023-12-28T01:17:56;9.50;86.00
9057;DHT22;4563;54.756;9.400;2023-12-28T01:20:23;9.50;86.00
9057;DHT22;4563;54.756;9.400;2023-12-28T01:22:50;9.50;86.10
9057;DHT22;4563;54.756;9.400;2023-12-28T01:25:17;9.50;86.00
9057;DHT22;4563;54.756;9.400;2023-12-28T01:27:43;9.50;86.10
9057;DHT22;4563;54.756;9.400;2023-12-28T01:30:10;9.50;86.10
9057;DHT22;4563;54.756;9.400;2023-12-28T01:32:37;9.50;86.00
9057;DHT22;4563;54.756;9.400;2023-12-28T01:35:05;9.50;86.00
9057;DHT22;4563;54.756;9.400;2023-12-28T01:37:32;9.60;86.20
9057;DHT22;4563;54.756;9.400;2023-12-28T01:39:59;9.60;86.20
9057;DHT22;4563;54.756;9.400;2023-12-28T01:42:26;9.60;86.20
9057;DHT22;4563;54.756;9.400;2023-12-28T01:44:55;9.60;86.10
9057;DHT22;4563;54.756;9.400;2023-12-28T01:47:22;9.60;86.90
9057;DHT22;4563;54.756;9.400;2023-12-28T01:49:51;9.60;86.20
9057;DHT22;4563;54.756;9.400;2023-12-28T01:52:18;9.70;86.30
9057;DHT22;4563;54.756;9.400;2023-12-28T01:54:45;9.70;86.30
9057;DHT22;4563;54.756;9.400;2023-12-28T01:57:12;9.70;86.30
9057;DHT22;4563;54.756;9.400;2023-12-28T01:59:40;9.70;86.30
9057;DHT22;4563;54.756;9.400;2023-12-28T02:02:07;9.70;86.30
9057;DHT22;4563;54.756;9.400;2023-12-28T02:04:34;9.80;86.40
9057;DHT22;4563;54.756;9.400;2023-12-28T02:07:03;9.80;86.40
9057;DHT22;4563;54.756;9.400;2023-12-28T02:09:30;9.80;86.40
9057;DHT22;4563;54.756;9.400;2023-12-28T02:11:57;9.80;86.40
9057;DHT22;4563;54.756;9.400;2023-12-28T02:14:23;9.80;86.40
9057;DHT22;4563;54.756;9.400;2023-12-28T02:16:56;9.80;86.40
9057;DHT22;4563;54.756;9.400;2023-12-28T02:19:34;9.90;86.60
9057;DHT22;4563;54.756;9.400;2023-12-28T02:22:08;9.80;86.40
9057;DHT22;4563;54.756;9.400;2023-12-28T02:24:58;9.90;86.50
9057;DHT22;4563;54.756;9.400;2023-12-28T02:27:25;9.90;86.50
9057;DHT22;4563;54.756;9.400;2023-12-28T02:29:52;9.90;86.50
9057;DHT22;4563;54.756;9.400;2023-12-28T02:32:24;9.90;86.50
9057;DHT22;4563;54.756;9.400;2023-12-28T02:37:42;9.90;86.50
9057;DHT22;4563;54.756;9.400;2023-12-28T02:40:12;9.90;86.50
9057;DHT22;4563;54.756;9.400;2023-12-28T02:42:41;9.90;86.60
9057;DHT22;4563;54.756;9.400;2023-12-28T02:45:09;10.00;85.40
9057;DHT22;4563;54.756;9.400;2023-12-28T02:47:36;10.00;85.50
9057;DHT22;4563;54.756;9.400;2023-12-28T02:50:03;10.00;85.50
9057;DHT22;4563;54.756;9.400;2023-12-28T02:52:30;10.00;85.50
9057;DHT22;4563;54.756;9.400;2023-12-28T02:54:57;10.00;85.50
9057;DHT22;4563;54.756;9.400;2023-12-28T02:57:25;10.00;85.50
9057;DHT22;4563;54.756;9.400;2023-12-28T02:59:52;10.10;85.60
9057;DHT22;4563;54.756;9.400;2023-12-28T03:02:19;10.10;85.70
9057;DHT22;4563;54.756;9.400;2023-12-28T03:04:46;10.10;85.70
9057;DHT22;4563;54.756;9.400;2023-12-28T03:07:12;10.10;85.60
9057;DHT22;4563;54.756;9.400;2023-12-28T03:09:39;10.10;85.60
9057;DHT22;4563;54.756;9.400;2023-12-28T03:12:06;10.10;85.60
9057;DHT22;4563;54.756;9.400;2023-12-28T03:14:35;10.10;85.60
9057;DHT22;4563;54.756;9.400;2023-12-28T03:17:01;10.10;85.60
9057;DHT22;4563;54.756;9.400;2023-12-28T03:19:28;10.10;85.70
9057;DHT22;4563;54.756;9.400;2023-12-28T03:21:55;10.10;85.70
9057;DHT22;4563;54.756;9.400;2023-12-28T03:24:22;10.10;85.70
9057;DHT22;4563;54.756;9.400;2023-12-28T03:26:49;10.20;85.80
9057;DHT22;4563;54.756;9.400;2023-12-28T03:29:16;10.10;85.70
9057;DHT22;4563;54.756;9.400;2023-12-28T03:31:44;10.20;85.80
9057;DHT22;4563;54.756;9.400;2023-12-28T03:34:11;10.10;85.70
9057;DHT22;4563;54.756;9.400;2023-12-28T03:36:38;10.20;85.80
9057;DHT22;4563;54.756;9.400;2023-12-28T03:39:05;10.20;85.80
9057;DHT22;4563;54.756;9.400;2023-12-28T03:41:32;10.20;85.90
9057;DHT22;4563;54.756;9.400;2023-12-28T03:43:59;10.20;85.80
9057;DHT22;4563;54.756;9.400;2023-12-28T03:46:26;10.20;85.80
9057;DHT22;4563;54.756;9.400;2023-12-28T03:48:54;10.20;85.90
9057;DHT22;4563;54.756;9.400;2023-12-28T03:51:21;10.20;85.80
9057;DHT22;4563;54.756;9.400;2023-12-28T03:53:48;10.20;85.80
9057;DHT22;4563;54.756;9.400;2023-12-28T03:56:21;10.30;85.90
9057;DHT22;4563;54.756;9.400;2023-12-28T03:58:49;10.30;86.00
9057;DHT22;4563;54.756;9.400;2023-12-28T04:01:16;10.20;85.80
9057;DHT22;4563;54.756;9.400;2023-12-28T04:03:43;10.20;85.90
9057;DHT22;4563;54.756;9.400;2023-12-28T04:06:12;10.30;86.00
9057;DHT22;4563;54.756;9.400;2023-12-28T04:08:39;10.20;85.90
9057;DHT22;4563;54.756;9.400;2023-12-28T04:11:06;10.30;86.00
9057;DHT22;4563;54.756;9.400;2023-12-28T04:13:32;10.30;85.90
9057;DHT22;4563;54.756;9.400;2023-12-28T04:15:59;10.30;85.90
9057;DHT22;4563;54.756;9.400;2023-12-28T04:18:26;10.20;85.80
9057;DHT22;4563;54.756;9.400;2023-12-28T04:20:53;10.30;85.90
9057;DHT22;4563;54.756;9.400;2023-12-28T04:23:21;10.30;85.90
9057;DHT22;4563;54.756;9.400;2023-12-28T04:25:48;10.30;85.90
9057;DHT22;4563;54.756;9.400;2023-12-28T04:28:15;10.30;85.90
9057;DHT22;4563;54.756;9.400;2023-12-28T04:30:42;10.30;85.90
9057;DHT22;4563;54.756;9.400;2023-12-28T04:33:09;10.30;85.90
9057;DHT22;4563;54.756;9.400;2023-12-28T04:35:35;10.20;85.80
9057;DHT22;4563;54.756;9.400;2023-12-28T04:38:03;10.30;85.90
9057;DHT22;4563;54.756;9.400;2023-12-28T04:40:31;10.20;85.80
9057;DHT22;4563;54.756;9.400;2023-12-28T04:42:59;10.20;85.80
9057;DHT22;4563;54.756;9.400;2023-12-28T04:45:26;10.20;85.80
9057;DHT22;4563;54.756;9.400;2023-12-28T04:47:53;10.20;85.80
9057;DHT22;4563;54.756;9.400;2023-12-28T04:50:20;10.20;85.80
9057;DHT22;4563;54.756;9.400;2023-12-28T04:52:46;10.20;85.80
9057;DHT22;4563;54.756;9.400;2023-12-28T04:55:14;10.20;85.80
9057;DHT22;4563;54.756;9.400;2023-12-28T04:57:42;10.20;85.70
9057;DHT22;4563;54.756;9.400;2023-12-28T05:00:09;10.20;85.70
9057;DHT22;4563;54.756;9.400;2023-12-28T05:02:36;10.20;85.70
9057;DHT22;4563;54.756;9.400;2023-12-28T05:05:04;10.20;85.70
9057;DHT22;4563;54.756;9.400;2023-12-28T05:07:30;10.20;85.80
9057;DHT22;4563;54.756;9.400;2023-12-28T05:09:57;10.20;85.70
9057;DHT22;4563;54.756;9.400;2023-12-28T05:12:24;10.20;85.70
9057;DHT22;4563;54.756;9.400;2023-12-28T05:14:53;10.20;85.70
9057;DHT22;4563;54.756;9.400;2023-12-28T05:17:20;10.10;85.80
9057;DHT22;4563;54.756;9.400;2023-12-28T05:19:47;10.20;85.70
9057;DHT22;4563;54.756;9.400;2023-12-28T05:22:13;10.20;85.70
9057;DHT22;4563;54.756;9.400;2023-12-28T05:24:40;10.20;85.70
9057;DHT22;4563;54.756;9.400;2023-12-28T05:27:07;10.20;85.70
9057;DHT22;4563;54.756;9.400;2023-12-28T05:29:34;10.20;85.70
9057;DHT22;4563;54.756;9.400;2023-12-28T05:32:02;10.20;85.60
9057;DHT22;4563;54.756;9.400;2023-12-28T05:34:29;10.20;85.60
9057;DHT22;4563;54.756;9.400;2023-12-28T05:36:56;10.30;85.70
9057;DHT22;4563;54.756;9.400;2023-12-28T05:39:22;10.30;85.70
9057;DHT22;4563;54.756;9.400;2023-12-28T05:41:49;10.30;85.70
9057;DHT22;4563;54.756;9.400;2023-12-28T05:44:16;10.30;85.70
9057;DHT22;4563;54.756;9.400;2023-12-28T05:46:43;10.30;85.60
9057;DHT22;4563;54.756;9.400;2023-12-28T05:49:11;10.40;85.70
9057;DHT22;4563;54.756;9.400;2023-12-28T05:51:38;10.40;85.70
9057;DHT22;4563;54.756;9.400;2023-12-28T05:54:06;10.40;85.70
9057;DHT22;4563;54.756;9.400;2023-12-28T05:56:33;10.40;85.70
9057;DHT22;4563;54.756;9.400;2023-12-28T05:59:00;10.40;85.60
9057;DHT22;4563;54.756;9.400;2023-12-28T06:01:27;10.40;85.70
9057;DHT22;4563;54.756;9.400;2023-12-28T06:03:54;10.40;85.70
9057;DHT22;4563;54.756;9.400;2023-12-28T06:06:22;10.40;85.60
9057;DHT22;4563;54.756;9.400;2023-12-28T06:08:49;10.50;85.70
9057;DHT22;4563;54.756;9.400;2023-12-28T06:11:17;10.40;85.60
9057;DHT22;4563;54.756;9.400;2023-12-28T06:13:43;10.50;85.60
9057;DHT22;4563;54.756;9.400;2023-12-28T06:16:10;10.50;85.60
9057;DHT22;4563;54.756;9.400;2023-12-28T06:18:37;10.50;85.60
9057;DHT22;4563;54.756;9.400;2023-12-28T06:21:04;10.60;85.70
9057;DHT22;4563;54.756;9.400;2023-12-28T06:23:33;10.60;85.60
9057;DHT22;4563;54.756;9.400;2023-12-28T06:26:04;10.60;85.70
9057;DHT22;4563;54.756;9.400;2023-12-28T06:28:32;10.60;85.70
9057;DHT22;4563;54.756;9.400;2023-12-28T06:30:59;10.60;85.60
9057;DHT22;4563;54.756;9.400;2023-12-28T06:33:26;10.60;86.30
9057;DHT22;4563;54.756;9.400;2023-12-28T06:35:54;10.60;85.50
9057;DHT22;4563;54.756;9.400;2023-12-28T06:38:23;10.70;85.60
9057;DHT22;4563;54.756;9.400;2023-12-28T06:40:51;10.70;85.60
9057;DHT22;4563;54.756;9.400;2023-12-28T06:43:18;10.70;85.50
9057;DHT22;4563;54.756;9.400;2023-12-28T06:45:45;10.70;85.50
9057;DHT22;4563;54.756;9.400;2023-12-28T06:48:12;10.70;85.40
9057;DHT22;4563;54.756;9.400;2023-12-28T06:50:39;10.80;85.60
9057;DHT22;4563;54.756;9.400;2023-12-28T06:53:05;10.80;85.50
9057;DHT22;4563;54.756;9.400;2023-12-28T06:55:32;10.80;85.40
9057;DHT22;4563;54.756;9.400;2023-12-28T06:58:01;10.80;85.40
9057;DHT22;4563;54.756;9.400;2023-12-28T07:00:28;10.80;85.30
9057;DHT22;4563;54.756;9.400;2023-12-28T07:02:55;10.80;85.20
9057;DHT22;4563;54.756;9.400;2023-12-28T07:05:22;10.80;85.10
9057;DHT22;4563;54.756;9.400;2023-12-28T07:07:49;10.90;85.20
9057;DHT22;4563;54.756;9.400;2023-12-28T07:10:15;10.90;85.10
9057;DHT22;4563;54.756;9.400;2023-12-28T07:12:42;10.90;85.10
9057;DHT22;4563;54.756;9.400;2023-12-28T07:15:11;10.90;85.10
9057;DHT22;4563;54.756;9.400;2023-12-28T07:17:39;10.90;85.00
9057;DHT22;4563;54.756;9.400;2023-12-28T07:20:07;10.90;85.00
9057;DHT22;4563;54.756;9.400;2023-12-28T07:22:34;10.90;84.90
9057;DHT22;4563;54.756;9.400;2023-12-28T07:25:01;11.00;84.90
9057;DHT22;4563;54.756;9.400;2023-12-28T07:27:28;11.00;84.90
9057;DHT22;4563;54.756;9.400;2023-12-28T07:29:55;11.00;84.80
9057;DHT22;4563;54.756;9.400;2023-12-28T07:32:23;11.00;84.70
9057;DHT22;4563;54.756;9.400;2023-12-28T07:34:52;11.00;84.70
9057;DHT22;4563;54.756;9.400;2023-12-28T07:37:19;11.00;84.60
9057;DHT22;4563;54.756;9.400;2023-12-28T07:39:46;11.00;84.60
9057;DHT22;4563;54.756;9.400;2023-12-28T07:42:13;11.00;84.50
9057;DHT22;4563;54.756;9.400;2023-12-28T07:44:40;11.00;84.50
9057;DHT22;4563;54.756;9.400;2023-12-28T07:47:07;11.00;84.40
9057;DHT22;4563;54.756;9.400;2023-12-28T07:49:36;11.00;84.40
9057;DHT22;4563;54.756;9.400;2023-12-28T07:52:03;11.00;84.40
9057;DHT22;4563;54.756;9.400;2023-12-28T07:54:30;11.10;84.50
9057;DHT22;4563;54.756;9.400;2023-12-28T07:56:56;11.10;84.40
9057;DHT22;4563;54.756;9.400;2023-12-28T07:59:23;11.10;84.40
9057;DHT22;4563;54.756;9.400;2023-12-28T08:01:50;11.10;84.40
9057;DHT22;4563;54.756;9.400;2023-12-28T08:04:17;11.10;84.30
9057;DHT22;4563;54.756;9.400;2023-12-28T08:06:45;11.10;84.20
9057;DHT22;4563;54.756;9.400;2023-12-28T08:09:12;11.10;84.20
9057;DHT22;4563;54.756;9.400;2023-12-28T08:11:38;11.20;84.30
9057;DHT22;4563;54.756;9.400;2023-12-28T08:14:05;11.10;84.10
9057;DHT22;4563;54.756;9.400;2023-12-28T08:16:32;11.10;84.10
9057;DHT22;4563;54.756;9.400;2023-12-28T08:19:00;11.20;84.20
9057;DHT22;4563;54.756;9.400;2023-12-28T08:21:27;11.10;84.00
9057;DHT22;4563;54.756;9.400;2023-12-28T08:23:57;11.20;84.10
9057;DHT22;4563;54.756;9.400;2023-12-28T08:26:24;11.20;84.10
9057;DHT22;4563;54.756;9.400;2023-12-28T08:28:50;11.20;84.00
9057;DHT22;4563;54.756;9.400;2023-12-28T08:31:18;11.20;84.00
9057;DHT22;4563;54.756;9.400;2023-12-28T08:33:45;11.20;84.00
9057;DHT22;4563;54.756;9.400;2023-12-28T08:36:11;11.20;84.00
9057;DHT22;4563;54.756;9.400;2023-12-28T08:38:39;11.20;84.00
9057;DHT22;4563;54.756;9.400;2023-12-28T08:41:07;11.20;83.90
9057;DHT22;4563;54.756;9.400;2023-12-28T08:43:35;11.20;83.90
9057;DHT22;4563;54.756;9.400;2023-12-28T08:46:02;11.20;83.90
9057;DHT22;4563;54.756;9.400;2023-12-28T08:48:28;11.20;83.90
9057;DHT22;4563;54.756;9.400;2023-12-28T08:50:55;11.20;83.90
9057;DHT22;4563;54.756;9.400;2023-12-28T08:53:22;11.20;83.80
9057;DHT22;4563;54.756;9.400;2023-12-28T08:55:49;11.20;83.80
9057;DHT22;4563;54.756;9.400;2023-12-28T08:58:17;11.30;83.90
9057;DHT22;4563;54.756;9.400;2023-12-28T09:00:44;11.20;83.80
9057;DHT22;4563;54.756;9.400;2023-12-28T09:03:12;11.30;83.90
9057;DHT22;4563;54.756;9.400;2023-12-28T09:05:39;11.30;84.00
9057;DHT22;4563;54.756;9.400;2023-12-28T09:08:06;11.30;83.90
9057;DHT22;4563;54.756;9.400;2023-12-28T09:10:33;11.30;84.00
9057;DHT22;4563;54.756;9.400;2023-12-28T09:13:00;11.20;83.90
9057;DHT22;4563;54.756;9.400;2023-12-28T09:15:28;11.30;84.00
9057;DHT22;4563;54.756;9.400;2023-12-28T09:17:56;11.30;84.00
9057;DHT22;4563;54.756;9.400;2023-12-28T09:20:22;11.30;84.00
9057;DHT22;4563;54.756;9.400;2023-12-28T09:22:49;11.30;84.00
9057;DHT22;4563;54.756;9.400;2023-12-28T09:25:21;11.30;83.90
9057;DHT22;4563;54.756;9.400;2023-12-28T09:27:48;11.30;84.00
9057;DHT22;4563;54.756;9.400;2023-12-28T09:30:15;11.40;84.10
9057;DHT22;4563;54.756;9.400;2023-12-28T09:32:43;11.40;84.20
9057;DHT22;4563;54.756;9.400;2023-12-28T09:35:10;11.40;84.10
9057;DHT22;4563;54.756;9.400;2023-12-28T09:37:37;11.40;84.10
9057;DHT22;4563;54.756;9.400;2023-12-28T09:40:05;11.40;84.10
9057;DHT22;4563;54.756;9.400;2023-12-28T09:42:40;11.40;84.10
9057;DHT22;4563;54.756;9.400;2023-12-28T09:45:10;11.50;84.30
9057;DHT22;4563;54.756;9.400;2023-12-28T09:47:38;11.50;84.20
9057;DHT22;4563;54.756;9.400;2023-12-28T09:50:07;11.50;84.10
9057;DHT22;4563;54.756;9.400;2023-12-28T09:52:34;11.50;84.10
9057;DHT22;4563;54.756;9.400;2023-12-28T09:55:01;11.50;84.10
9057;DHT22;4563;54.756;9.400;2023-12-28T09:57:30;11.50;84.00
9057;DHT22;4563;54.756;9.400;2023-12-28T09:59:57;11.50;83.80
9057;DHT22;4563;54.756;9.400;2023-12-28T10:02:24;11.50;83.80
9057;DHT22;4563;54.756;9.400;2023-12-28T10:04:51;11.50;83.70
9057;DHT22;4563;54.756;9.400;2023-12-28T10:07:19;11.50;83.70
9057;DHT22;4563;54.756;9.400;2023-12-28T10:09:46;11.50;83.60
9057;DHT22;4563;54.756;9.400;2023-12-28T10:12:13;11.50;83.70
9057;DHT22;4563;54.756;9.400;2023-12-28T10:14:41;11.50;83.60
9057;DHT22;4563;54.756;9.400;2023-12-28T10:17:08;11.40;83.60
9057;DHT22;4563;54.756;9.400;2023-12-28T10:19:36;11.40;83.80
9057;DHT22;4563;54.756;9.400;2023-12-28T10:22:04;11.40;83.70
9057;DHT22;4563;54.756;9.400;2023-12-28T10:24:33;11.40;83.90
9057;DHT22;4563;54.756;9.400;2023-12-28T10:27:00;11.40;83.90
9057;DHT22;4563;54.756;9.400;2023-12-28T10:29:27;11.50;84.00
9057;DHT22;4563;54.756;9.400;2023-12-28T10:31:54;11.50;84.10
9057;DHT22;4563;54.756;9.400;2023-12-28T10:34:21;11.40;84.00
9057;DHT22;4563;54.756;9.400;2023-12-28T10:36:48;11.50;84.10
9057;DHT22;4563;54.756;9.400;2023-12-28T10:39:19;11.50;84.30
9057;DHT22;4563;54.756;9.400;2023-12-28T10:41:49;11.50;84.20
9057;DHT22;4563;54.756;9.400;2023-12-28T10:44:19;11.50;84.20
9057;DHT22;4563;54.756;9.400;2023-12-28T10:46:48;11.50;84.40
9057;DHT22;4563;54.756;9.400;2023-12-28T10:49:20;11.50;84.40
9057;DHT22;4563;54.756;9.400;2023-12-28T10:51:51;11.50;84.40
9057;DHT22;4563;54.756;9.400;2023-12-28T10:54:28;11.50;84.40
9057;DHT22;4563;54.756;9.400;2023-12-28T10:57:06;11.50;84.50
9057;DHT22;4563;54.756;9.400;2023-12-28T10:59:42;11.50;84.40
9057;DHT22;4563;54.756;9.400;2023-12-28T11:02:15;11.50;84.40
9057;DHT22;4563;54.756;9.400;2023-12-28T11:04:49;11.50;84.40
9057;DHT22;4563;54.756;9.400;2023-12-28T11:07:18;11.60;84.60
9057;DHT22;4563;54.756;9.400;2023-12-28T11:09:45;11.60;84.50
9057;DHT22;4563;54.756;9.400;2023-12-28T11:12:16;11.50;84.40
9057;DHT22;4563;54.756;9.400;2023-12-28T11:14:44;11.50;84.40
9057;DHT22;4563;54.756;9.400;2023-12-28T11:17:11;11.60;84.50
9057;DHT22;4563;54.756;9.400;2023-12-28T11:19:41;11.60;84.60
9057;DHT22;4563;54.756;9.400;2023-12-28T11:22:08;11.60;84.60
9057;DHT22;4563;54.756;9.400;2023-12-28T11:24:35;11.60;84.70
9057;DHT22;4563;54.756;9.400;2023-12-28T11:27:03;11.60;84.70
9057;DHT22;4563;54.756;9.400;2023-12-28T11:29:34;11.60;84.70
9057;DHT22;4563;54.756;9.400;2023-12-28T11:32:01;11.60;84.70
9057;DHT22;4563;54.756;9.400;2023-12-28T11:34:28;11.60;84.70
9057;DHT22;4563;54.756;9.400;2023-12-28T11:36:57;11.60;84.70
9057;DHT22;4563;54.756;9.400;2023-12-28T11:39:30;11.60;84.70
9057;DHT22;4563;54.756;9.400;2023-12-28T11:42:02;11.60;84.70
9057;DHT22;4563;54.756;9.400;2023-12-28T11:44:29;11.60;84.70
9057;DHT22;4563;54.756;9.400;2023-12-28T11:46:58;11.60;84.60
9057;DHT22;4563;54.756;9.400;2023-12-28T11:49:26;11.60;84.60
9057;DHT22;4563;54.756;9.400;2023-12-28T11:51:55;11.60;84.70
9057;DHT22;4563;54.756;9.400;2023-12-28T11:54:23;11.60;84.70
9057;DHT22;4563;54.756;9.400;2023-12-28T11:56:50;11.60;84.70
9057;DHT22;4563;54.756;9.400;2023-12-28T11:59:18;11.60;84.60
9057;DHT22;4563;54.756;9.400;2023-12-28T12:01:49;11.60;84.60
9057;DHT22;4563;54.756;9.400;2023-12-28T12:04:17;11.60;84.60
9057;DHT22;4563;54.756;9.400;2023-12-28T12:06:44;11.60;84.70
9057;DHT22;4563;54.756;9.400;2023-12-28T12:09:12;11.60;84.70
9057;DHT22;4563;54.756;9.400;2023-12-28T12:11:39;11.60;84.60
9057;DHT22;4563;54.756;9.400;2023-12-28T12:14:08;11.60;84.70
9057;DHT22;4563;54.756;9.400;2023-12-28T12:16:35;11.60;84.70
9057;DHT22;4563;54.756;9.400;2023-12-28T12:19:02;11.60;84.70
9057;DHT22;4563;54.756;9.400;2023-12-28T12:21:30;11.60;84.80
9057;DHT22;4563;54.756;9.400;2023-12-28T12:23:57;11.60;84.80
9057;DHT22;4563;54.756;9.400;2023-12-28T12:26:24;11.60;84.80
9057;DHT22;4563;54.756;9.400;2023-12-28T12:28:52;11.60;84.80
9057;DHT22;4563;54.756;9.400;2023-12-28T12:31:19;11.60;84.90
9057;DHT22;4563;54.756;9.400;2023-12-28T12:33:46;11.60;84.90
9057;DHT22;4563;54.756;9.400;2023-12-28T12:36:13;11.60;84.90
9057;DHT22;4563;54.756;9.400;2023-12-28T12:38:42;11.60;85.00
9057;DHT22;4563;54.756;9.400;2023-12-28T12:41:10;11.60;85.00
9057;DHT22;4563;54.756;9.400;2023-12-28T12:43:38;11.60;85.00
9057;DHT22;4563;54.756;9.400;2023-12-28T12:46:06;11.60;84.90
9057;DHT22;4563;54.756;9.400;2023-12-28T12:48:33;11.70;85.10
9057;DHT22;4563;54.756;9.400;2023-12-28T12:51:02;11.70;85.00
9057;DHT22;4563;54.756;9.400;2023-12-28T12:53:33;11.70;85.00
9057;DHT22;4563;54.756;9.400;2023-12-28T12:56:03;11.70;84.90
9057;DHT22;4563;54.756;9.400;2023-12-28T12:58:30;11.70;84.90
9057;DHT22;4563;54.756;9.400;2023-12-28T13:00:57;11.70;84.90
9057;DHT22;4563;54.756;9.400;2023-12-28T13:03:27;11.70;84.80
9057;DHT22;4563;54.756;9.400;2023-12-28T13:05:55;11.70;84.80
9057;DHT22;4563;54.756;9.400;2023-12-28T13:08:22;11.70;84.80
9057;DHT22;4563;54.756;9.400;2023-12-28T13:10:49;11.70;84.70
9057;DHT22;4563;54.756;9.400;2023-12-28T13:13:17;11.70;84.60
9057;DHT22;4563;54.756;9.400;2023-12-28T13:15:44;11.70;84.60
9057;DHT22;4563;54.756;9.400;2023-12-28T13:18:11;11.70;84.50
9057;DHT22;4563;54.756;9.400;2023-12-28T13:20:38;11.70;84.50
9057;DHT22;4563;54.756;9.400;2023-12-28T13:23:05;11.70;84.50
9057;DHT22;4563;54.756;9.400;2023-12-28T13:25:32;11.70;84.30
9057;DHT22;4563;54.756;9.400;2023-12-28T13:27:58;11.60;84.10
9057;DHT22;4563;54.756;9.400;2023-12-28T13:30:27;11.60;84.10
9057;DHT22;4563;54.756;9.400;2023-12-28T13:32:54;11.60;84.00
9057;DHT22;4563;54.756;9.400;2023-12-28T13:35:22;11.60;84.00
9057;DHT22;4563;54.756;9.400;2023-12-28T13:37:48;11.60;83.90
9057;DHT22;4563;54.756;9.400;2023-12-28T13:40:15;11.60;83.90
9057;DHT22;4563;54.756;9.400;2023-12-28T13:42:42;11.60;84.00
9057;DHT22;4563;54.756;9.400;2023-12-28T13:45:09;11.50;83.80
9057;DHT22;4563;54.756;9.400;2023-12-28T13:47:37;11.50;83.80
9057;DHT22;4563;54.756;9.400;2023-12-28T13:50:05;11.50;83.90
9057;DHT22;4563;54.756;9.400;2023-12-28T13:52:32;11.50;84.00
9057;DHT22;4563;54.756;9.400;2023-12-28T13:54:59;11.50;84.00
9057;DHT22;4563;54.756;9.400;2023-12-28T13:57:26;11.50;84.10
9057;DHT22;4563;54.756;9.400;2023-12-28T13:59:53;11.50;84.20
9057;DHT22;4563;54.756;9.400;2023-12-28T14:02:21;11.50;84.30
9057;DHT22;4563;54.756;9.400;2023-12-28T14:04:50;11.50;84.20
9057;DHT22;4563;54.756;9.400;2023-12-28T14:07:16;11.50;84.30
9057;DHT22;4563;54.756;9.400;2023-12-28T14:09:43;11.50;84.30
9057;DHT22;4563;54.756;9.400;2023-12-28T14:12:10;11.50;84.30
9057;DHT22;4563;54.756;9.400;2023-12-28T14:14:37;11.50;84.30
9057;DHT22;4563;54.756;9.400;2023-12-28T14:17:04;11.50;84.30
9057;DHT22;4563;54.756;9.400;2023-12-28T14:19:31;11.50;84.40
9057;DHT22;4563;54.756;9.400;2023-12-28T14:22:00;11.50;84.50
9057;DHT22;4563;54.756;9.400;2023-12-28T14:24:27;11.50;84.50
9057;DHT22;4563;54.756;9.400;2023-12-28T14:26:55;11.50;84.60
9057;DHT22;4563;54.756;9.400;2023-12-28T14:29:23;11.50;84.70
9057;DHT22;4563;54.756;9.400;2023-12-28T14:31:51;11.50;84.70
9057;DHT22;4563;54.756;9.400;2023-12-28T14:34:18;11.50;84.70
9057;DHT22;4563;54.756;9.400;2023-12-28T14:36:45;11.50;84.80
9057;DHT22;4563;54.756;9.400;2023-12-28T14:39:16;11.50;84.80
9057;DHT22;4563;54.756;9.400;2023-12-28T14:41:45;11.50;84.80
9057;DHT22;4563;54.756;9.400;2023-12-28T14:44:12;11.50;84.80
9057;DHT22;4563;54.756;9.400;2023-12-28T14:46:39;11.50;84.90
9057;DHT22;4563;54.756;9.400;2023-12-28T14:49:06;11.50;84.90
9057;DHT22;4563;54.756;9.400;2023-12-28T14:51:33;11.50;84.90
9057;DHT22;4563;54.756;9.400;2023-12-28T14:53:59;11.50;84.90
9057;DHT22;4563;54.756;9.400;2023-12-28T14:56:28;11.50;84.90
9057;DHT22;4563;54.756;9.400;2023-12-28T14:58:54;11.50;84.90
9057;DHT22;4563;54.756;9.400;2023-12-28T15:01:21;11.50;84.90
9057;DHT22;4563;54.756;9.400;2023-12-28T15:03:48;11.50;85.00
9057;DHT22;4563;54.756;9.400;2023-12-28T15:06:15;11.50;84.90
9057;DHT22;4563;54.756;9.400;2023-12-28T15:08:42;11.50;84.90
9057;DHT22;4563;54.756;9.400;2023-12-28T15:11:09;11.50;84.90
9057;DHT22;4563;54.756;9.400;2023-12-28T15:13:38;11.50;84.90
9057;DHT22;4563;54.756;9.400;2023-12-28T15:16:06;11.50;84.90
9057;DHT22;4563;54.756;9.400;2023-12-28T15:18:34;11.50;85.00
9057;DHT22;4563;54.756;9.400;2023-12-28T15:21:01;11.50;85.00
9057;DHT22;4563;54.756;9.400;2023-12-28T15:23:29;11.50;85.00
9057;DHT22;4563;54.756;9.400;2023-12-28T15:25:56;11.50;84.90
9057;DHT22;4563;54.756;9.400;2023-12-28T15:28:23;11.50;85.40
9057;DHT22;4563;54.756;9.400;2023-12-28T15:30:51;11.50;84.90
9057;DHT22;4563;54.756;9.400;2023-12-28T15:33:18;11.50;84.90
9057;DHT22;4563;54.756;9.400;2023-12-28T15:35:44;11.40;84.90
9057;DHT22;4563;54.756;9.400;2023-12-28T15:38:11;11.50;84.90
9057;DHT22;4563;54.756;9.400;2023-12-28T15:40:41;11.50;84.90
9057;DHT22;4563;54.756;9.400;2023-12-28T15:43:08;11.50;84.90
9057;DHT22;4563;54.756;9.400;2023-12-28T15:45:36;11.50;84.90
9057;DHT22;4563;54.756;9.400;2023-12-28T15:48:05;11.50;84.90
9057;DHT22;4563;54.756;9.400;2023-12-28T15:50:32;11.50;85.00
9057;DHT22;4563;54.756;9.400;2023-12-28T15:52:59;11.50;84.90
9057;DHT22;4563;54.756;9.400;2023-12-28T15:55:26;11.50;84.90
9057;DHT22;4563;54.756;9.400;2023-12-28T15:57:53;11.50;85.00
9057;DHT22;4563;54.756;9.400;2023-12-28T16:00:20;11.50;84.90
9057;DHT22;4563;54.756;9.400;2023-12-28T16:02:47;11.50;84.90
9057;DHT22;4563;54.756;9.400;2023-12-28T16:05:15;11.50;84.90
9057;DHT22;4563;54.756;9.400;2023-12-28T16:07:42;11.50;84.90
9057;DHT22;4563;54.756;9.400;2023-12-28T16:10:08;11.50;84.90